createdAt,value
2023-03-14T00:02:11.177Z,16.90
2023-03-14T00:07:16.018Z,16.10
2023-03-14T00:12:19.668Z,15.10
2023-03-14T00:17:24.292Z,14.90
2023-03-14T00:22:28.616Z,13.50
2023-03-14T00:27:33.206Z,14.50
2023-03-14T00:32:37.190Z,14.60
2023-03-14T00:37:40.916Z,17.60
2023-03-14T00:42:44.442Z,23.70
2023-03-14T00:47:48.191Z,18.80
2023-03-14T00:52:51.965Z,19.20
2023-03-14T00:57:55.526Z,19.30
2023-03-14T01:02:59.321Z,14.30
2023-03-14T01:08:03.855Z,11.80
2023-03-14T01:13:07.911Z,13.60
2023-03-14T01:18:11.561Z,14.20
2023-03-14T01:23:15.101Z,12.20
2023-03-14T01:28:18.844Z,20.90
2023-03-14T01:33:22.388Z,13.90
2023-03-14T01:38:26.337Z,12.20
2023-03-14T01:43:31.459Z,12.20
2023-03-14T01:48:49.949Z,12.90
2023-03-14T01:54:01.780Z,13.60
2023-03-14T01:59:10.203Z,17.90
2023-03-14T02:04:14.742Z,21.10
2023-03-14T02:09:19.819Z,18.20
2023-03-14T02:14:36.234Z,13.20
2023-03-14T02:20:10.248Z,17.10
2023-03-14T02:25:41.822Z,11.90
2023-03-14T02:30:46.162Z,8.40
2023-03-14T02:36:05.746Z,12.30
2023-03-14T02:41:09.739Z,14.60
2023-03-14T02:46:19.413Z,12.50
2023-03-14T02:51:27.362Z,12.90
2023-03-14T02:56:31.224Z,11.50
2023-03-14T03:01:36.296Z,12.60
2023-03-14T03:06:40.184Z,11.70
2023-03-14T03:11:44.040Z,12.40
2023-03-14T03:16:47.994Z,10.50
2023-03-14T03:21:51.905Z,11.20
2023-03-14T03:26:55.689Z,14.40
2023-03-14T03:31:59.355Z,18.20
2023-03-14T03:37:02.961Z,11.20
2023-03-14T03:42:06.773Z,8.30
2023-03-14T03:47:10.674Z,9.90
2023-03-14T03:52:14.568Z,9.60
2023-03-14T03:57:18.401Z,10.20
2023-03-14T04:02:22.149Z,9.70
2023-03-14T04:07:26.242Z,11.80
2023-03-14T04:12:29.995Z,10.40
2023-03-14T04:17:33.696Z,10.50
2023-03-14T04:22:37.602Z,13.50
2023-03-14T04:27:41.457Z,12.50
2023-03-14T04:32:45.255Z,15.50
2023-03-14T04:37:50.461Z,10.70
2023-03-14T04:42:54.430Z,9.00
2023-03-14T04:47:58.314Z,11.40
2023-03-14T04:53:01.970Z,12.80
2023-03-14T04:58:05.805Z,11.00
2023-03-14T05:03:09.761Z,20.60
2023-03-14T05:08:13.611Z,36.90
2023-03-14T05:13:17.394Z,25.10
2023-03-14T05:18:21.330Z,20.00
2023-03-14T05:23:24.972Z,23.70
2023-03-14T05:28:29.686Z,11.00
2023-03-14T05:33:33.600Z,9.60
2023-03-14T05:38:37.435Z,10.70
2023-03-14T05:43:41.561Z,48.70
2023-03-14T05:48:46.005Z,17.20
2023-03-14T05:53:49.882Z,12.90
2023-03-14T05:58:53.650Z,16.60
2023-03-14T06:03:57.864Z,10.50
2023-03-14T06:09:02.680Z,23.20
2023-03-14T06:14:06.421Z,8.70
2023-03-14T06:19:10.167Z,13.00
2023-03-14T06:24:14.118Z,16.40
2023-03-14T06:29:18.013Z,12.20
2023-03-14T06:34:21.809Z,10.70
2023-03-14T06:39:25.611Z,12.50
2023-03-14T06:44:29.426Z,6.60
2023-03-14T06:49:33.154Z,12.50
2023-03-14T06:54:36.969Z,16.60
2023-03-14T06:59:40.725Z,10.60
2023-03-14T07:04:44.932Z,10.90
2023-03-14T07:09:49.054Z,25.40
2023-03-14T07:14:53.045Z,38.40
2023-03-14T07:19:56.854Z,13.20
2023-03-14T07:25:00.764Z,19.60
2023-03-14T07:30:05.992Z,14.10
2023-03-14T07:35:10.943Z,12.60
2023-03-14T07:40:16.534Z,14.10
2023-03-14T07:45:20.279Z,16.40
2023-03-14T07:50:25.497Z,10.60
2023-03-14T07:55:29.157Z,15.70
2023-03-14T08:00:32.980Z,12.10
2023-03-14T08:05:40.906Z,12.40
2023-03-14T08:10:45.442Z,16.80
2023-03-14T08:15:50.724Z,13.30
2023-03-14T08:20:54.692Z,14.80
2023-03-14T08:25:58.558Z,11.20
2023-03-14T08:31:04.412Z,8.90
2023-03-14T08:36:09.127Z,11.60
2023-03-14T08:41:13.474Z,15.00
2023-03-14T08:46:17.568Z,12.20
2023-03-14T08:51:21.307Z,13.70
2023-03-14T08:56:26.189Z,14.00
2023-03-14T09:01:30.349Z,13.50
2023-03-14T09:06:34.327Z,13.20
2023-03-14T09:11:38.382Z,16.00
2023-03-14T09:16:42.551Z,11.10
2023-03-14T09:21:46.453Z,17.10
2023-03-14T09:26:50.329Z,15.40
2023-03-14T09:31:54.364Z,20.00
2023-03-14T09:36:58.502Z,12.80
2023-03-14T09:42:08.315Z,13.90
2023-03-14T09:47:15.806Z,16.50
2023-03-14T09:52:31.505Z,14.20
2023-03-14T09:57:37.549Z,14.30
2023-03-14T10:02:47.819Z,14.50
2023-03-14T10:07:52.990Z,14.20
2023-03-14T10:13:30.607Z,14.80
2023-03-14T10:18:36.003Z,17.50
2023-03-14T10:23:40.653Z,31.90
2023-03-14T10:28:54.588Z,16.40
2023-03-14T10:34:05.848Z,15.10
2023-03-14T10:39:47.520Z,15.80
2023-03-14T10:45:00.671Z,12.70
2023-03-14T10:50:30.199Z,17.40
2023-03-14T10:55:46.531Z,13.30
2023-03-14T11:01:16.944Z,12.90
2023-03-14T11:06:21.813Z,11.30
2023-03-14T11:11:31.663Z,16.30
2023-03-14T11:16:46.566Z,25.60
2023-03-14T11:22:18.963Z,14.40
2023-03-14T11:27:42.753Z,13.20
2023-03-14T11:32:48.717Z,9.60
2023-03-14T11:38:23.310Z,10.70
2023-03-14T11:43:44.195Z,10.30
2023-03-14T11:49:31.808Z,12.10
2023-03-14T11:54:56.810Z,12.20
2023-03-14T12:00:06.366Z,9.90
2023-03-14T12:05:47.542Z,26.10
2023-03-14T12:11:30.790Z,17.60
2023-03-14T12:16:41.332Z,14.20
2023-03-14T12:21:53.303Z,16.50
2023-03-14T12:27:01.876Z,11.80
2023-03-14T12:37:49.263Z,15.20
2023-03-14T12:43:00.607Z,13.00
2023-03-14T12:48:25.695Z,14.80
2023-03-14T12:53:56.004Z,15.40
2023-03-14T12:59:47.452Z,11.80
2023-03-14T13:05:12.702Z,13.40
2023-03-14T13:10:42.319Z,23.80
2023-03-14T13:15:52.386Z,26.60
2023-03-14T13:21:04.088Z,21.30
2023-03-14T13:26:20.138Z,14.20
2023-03-14T13:31:27.755Z,20.00
2023-03-14T13:36:36.709Z,24.70
2023-03-14T13:41:48.282Z,50.00
2023-03-14T13:47:03.987Z,62.00
2023-03-14T13:52:38.717Z,75.80
2023-03-14T13:57:55.967Z,65.50
2023-03-14T14:03:02.713Z,35.60
2023-03-14T14:08:08.200Z,20.50
2023-03-14T14:13:21.928Z,19.00
2023-03-14T14:18:30.253Z,50.80
2023-03-14T14:23:34.776Z,55.30
2023-03-14T14:28:39.554Z,34.40
2023-03-14T14:33:56.757Z,21.70
2023-03-14T14:39:27.927Z,21.10
2023-03-14T14:44:37.939Z,21.90
2023-03-14T14:49:42.605Z,14.90
2023-03-14T14:55:01.404Z,24.10
2023-03-14T15:00:21.966Z,29.10
2023-03-14T15:05:57.509Z,25.00
2023-03-14T15:11:06.896Z,27.30
2023-03-14T15:16:18.292Z,32.70
2023-03-14T15:21:24.646Z,22.40
2023-03-14T15:26:32.174Z,41.20
2023-03-14T15:31:51.810Z,40.00
2023-03-14T15:37:00.640Z,25.30
2023-03-14T15:42:07.111Z,20.60
2023-03-14T15:47:12.420Z,19.60
2023-03-14T15:52:16.592Z,26.00
2023-03-14T15:57:20.435Z,23.20
2023-03-14T16:02:24.613Z,40.30
2023-03-14T16:07:28.886Z,20.30
2023-03-14T16:12:34.837Z,23.20
2023-03-14T16:17:41.410Z,18.20
2023-03-14T16:22:45.883Z,33.90
2023-03-14T16:28:00.610Z,29.30
2023-03-14T16:33:13.198Z,24.00
2023-03-14T16:38:17.021Z,29.80
2023-03-14T16:43:21.733Z,30.70
2023-03-14T16:48:26.700Z,23.60
2023-03-14T16:53:33.188Z,34.50
2023-03-14T16:58:38.542Z,27.00
2023-03-14T17:03:48.562Z,20.30
2023-03-14T17:08:55.808Z,27.20
2023-03-14T17:14:01.272Z,18.40
2023-03-14T17:19:05.177Z,24.20
2023-03-14T17:24:09.768Z,14.20
2023-03-14T17:29:14.385Z,24.00
2023-03-14T17:34:18.657Z,28.40
2023-03-14T17:39:22.979Z,20.70
2023-03-14T17:44:27.943Z,35.70
2023-03-14T17:49:32.389Z,21.40
2023-03-14T17:54:36.516Z,35.20
2023-03-14T17:59:43.198Z,29.10
2023-03-14T18:04:47.642Z,26.50
2023-03-14T18:09:52.218Z,25.10
2023-03-14T18:14:57.690Z,29.20
2023-03-14T18:20:01.529Z,21.50
2023-03-14T18:25:06.995Z,28.80
2023-03-14T18:30:13.048Z,23.80
2023-03-14T18:35:18.049Z,22.50
2023-03-14T18:40:23.131Z,22.10
2023-03-14T18:45:28.043Z,23.20
2023-03-14T18:50:42.208Z,28.00
2023-03-14T18:55:49.071Z,23.20
2023-03-14T19:00:53.309Z,19.30
2023-03-14T19:06:00.023Z,27.70
2023-03-14T19:11:07.920Z,21.30
2023-03-14T19:16:16.949Z,35.40
2023-03-14T19:21:32.179Z,35.50
2023-03-14T19:26:38.194Z,22.00
2023-03-14T19:31:43.664Z,24.50
2023-03-14T19:36:47.813Z,36.50
2023-03-14T19:41:57.979Z,30.60
2023-03-14T19:47:01.942Z,22.10
2023-03-14T19:52:05.934Z,25.50
2023-03-14T19:57:10.077Z,30.30
2023-03-14T20:02:20.074Z,28.80
2023-03-14T20:07:24.079Z,24.90
2023-03-14T20:12:32.236Z,24.00
2023-03-14T20:17:39.199Z,29.70
2023-03-14T20:22:44.636Z,20.20
2023-03-14T20:27:52.355Z,20.90
2023-03-14T20:32:56.484Z,24.20
2023-03-14T20:38:00.442Z,22.30
2023-03-14T20:43:04.917Z,19.60
2023-03-14T20:48:09.249Z,27.70
2023-03-14T20:53:13.254Z,24.50
2023-03-14T20:58:17.300Z,22.70
2023-03-14T21:03:23.477Z,27.80
2023-03-14T21:08:29.732Z,27.40
2023-03-14T21:13:35.556Z,25.10
2023-03-14T21:18:41.482Z,24.50
2023-03-14T21:23:49.497Z,23.80
2023-03-14T21:28:55.919Z,41.70
2023-03-14T21:34:00.662Z,37.40
2023-03-14T21:39:06.392Z,41.90
2023-03-14T21:44:13.059Z,33.20
2023-03-14T21:49:18.365Z,33.70
2023-03-14T21:54:22.108Z,23.50
2023-03-14T21:59:26.878Z,10.90
2023-03-14T22:04:35.208Z,6.40
2023-03-14T22:09:45.484Z,4.90
2023-03-14T22:14:49.694Z,9.50
2023-03-14T22:19:53.507Z,8.10
2023-03-14T22:24:57.136Z,6.80
2023-03-14T22:30:00.757Z,4.20
2023-03-14T22:35:04.986Z,13.80
2023-03-14T22:40:10.101Z,9.40
2023-03-14T22:45:14.318Z,4.60
2023-03-14T22:50:18.002Z,4.40
2023-03-14T22:55:21.743Z,3.40
2023-03-14T23:00:27.407Z,4.60
2023-03-14T23:05:31.110Z,2.50
2023-03-14T23:10:34.833Z,2.60
2023-03-14T23:15:38.556Z,2.20
2023-03-14T23:20:43.541Z,4.00
2023-03-14T23:25:53.221Z,3.00
2023-03-14T23:30:59.649Z,2.80
2023-03-14T23:36:08.689Z,4.00
2023-03-14T23:46:19.982Z,2.40
2023-03-14T23:51:24.399Z,3.20
2023-03-14T23:56:28.329Z,2.80
